createdAt,value
2023-03-16T00:01:09.712Z,5.70
2023-03-16T00:03:36.673Z,3.63
2023-03-16T00:06:03.738Z,6.55
2023-03-16T00:08:30.365Z,6.30
2023-03-16T00:10:56.998Z,4.70
2023-03-16T00:13:24.476Z,3.22
2023-03-16T00:15:56.823Z,5.03
2023-03-16T00:18:28.219Z,4.57
2023-03-16T00:20:58.230Z,3.72
2023-03-16T00:23:28.903Z,5.00
2023-03-16T00:26:00.136Z,2.92
2023-03-16T00:28:28.448Z,4.60
2023-03-16T00:30:59.121Z,5.20
2023-03-16T00:33:27.309Z,5.32
2023-03-16T00:36:02.306Z,5.57
2023-03-16T00:38:31.989Z,4.03
2023-03-16T00:40:58.705Z,4.43
2023-03-16T00:43:27.362Z,4.88
2023-03-16T00:46:06.962Z,3.85
2023-03-16T00:48:34.790Z,4.78
2023-03-16T00:51:06.819Z,3.30
2023-03-16T00:53:34.476Z,5.82
2023-03-16T00:56:04.424Z,4.32
2023-03-16T00:58:35.999Z,4.65
2023-03-16T01:01:07.658Z,3.38
2023-03-16T01:03:34.711Z,4.65
2023-03-16T01:06:10.470Z,4.40
2023-03-16T01:08:38.495Z,3.00
2023-03-16T01:11:16.384Z,2.88
2023-03-16T01:13:43.461Z,5.47
2023-03-16T01:16:10.906Z,3.80
2023-03-16T01:18:37.872Z,3.78
2023-03-16T01:21:13.793Z,3.53
2023-03-16T01:23:40.553Z,4.13
2023-03-16T01:26:08.414Z,3.30
2023-03-16T01:28:35.089Z,4.82
2023-03-16T01:31:04.778Z,3.75
2023-03-16T01:33:31.442Z,4.90
2023-03-16T01:36:01.840Z,2.08
2023-03-16T01:38:28.748Z,4.50
2023-03-16T01:40:55.970Z,4.38
2023-03-16T01:43:25.408Z,2.58
2023-03-16T01:46:07.126Z,5.13
2023-03-16T01:48:39.654Z,4.00
2023-03-16T01:56:16.503Z,3.45
2023-03-16T01:58:45.376Z,2.33
2023-03-16T02:01:13.974Z,3.58
2023-03-16T02:03:43.147Z,4.22
2023-03-16T02:06:18.241Z,4.63
2023-03-16T02:08:47.127Z,3.92
2023-03-16T02:11:18.146Z,2.92
2023-03-16T02:13:46.008Z,3.58
2023-03-16T02:16:19.463Z,4.82
2023-03-16T02:18:51.520Z,1.38
2023-03-16T02:22:02.227Z,2.80
2023-03-16T02:24:28.960Z,2.10
2023-03-16T02:27:11.568Z,3.28
2023-03-16T02:29:59.551Z,3.85
2023-03-16T02:32:29.640Z,2.70
2023-03-16T02:34:58.267Z,2.28
2023-03-16T02:37:25.867Z,2.65
2023-03-16T02:39:52.454Z,3.05
2023-03-16T02:42:22.012Z,2.83
2023-03-16T02:44:56.094Z,3.70
2023-03-16T02:47:44.418Z,2.80
2023-03-16T02:50:12.584Z,2.72
2023-03-16T02:52:40.049Z,3.50
2023-03-16T02:55:08.373Z,2.65
2023-03-16T02:57:35.154Z,3.40
2023-03-16T03:00:01.864Z,2.67
2023-03-16T03:02:28.454Z,2.60
2023-03-16T03:04:55.070Z,2.78
2023-03-16T03:07:21.963Z,2.80
2023-03-16T03:09:48.586Z,3.22
2023-03-16T03:12:15.176Z,2.90
2023-03-16T03:14:41.868Z,2.92
2023-03-16T03:17:10.138Z,2.78
2023-03-16T03:19:37.056Z,3.78
2023-03-16T03:22:06.540Z,2.58
2023-03-16T03:24:34.264Z,2.10
2023-03-16T03:27:01.252Z,3.05
2023-03-16T03:29:36.673Z,3.88
2023-03-16T03:32:05.029Z,2.40
2023-03-16T03:34:31.911Z,2.70
2023-03-16T03:36:59.229Z,1.98
2023-03-16T03:39:25.990Z,2.92
2023-03-16T03:41:54.682Z,2.92
2023-03-16T03:44:22.335Z,2.53
2023-03-16T03:46:50.113Z,2.40
2023-03-16T03:49:16.716Z,2.58
2023-03-16T03:51:44.242Z,3.40
2023-03-16T03:54:10.827Z,3.58
2023-03-16T03:56:37.618Z,2.80
2023-03-16T03:59:04.219Z,3.25
2023-03-16T04:01:30.754Z,3.38
2023-03-16T04:03:57.346Z,2.50
2023-03-16T04:06:24.010Z,2.75
2023-03-16T04:08:51.313Z,1.90
2023-03-16T04:11:17.892Z,2.85
2023-03-16T04:13:44.498Z,3.10
2023-03-16T04:16:11.188Z,1.83
2023-03-16T04:18:40.958Z,1.70
2023-03-16T04:21:12.657Z,2.20
2023-03-16T04:23:39.288Z,2.42
2023-03-16T04:26:05.908Z,4.10
2023-03-16T04:28:35.519Z,2.38
2023-03-16T04:31:08.245Z,2.53
2023-03-16T04:33:39.035Z,2.70
2023-03-16T04:36:06.958Z,3.75
2023-03-16T04:38:34.215Z,1.00
2023-03-16T04:41:05.315Z,2.20
2023-03-16T04:43:35.494Z,2.42
2023-03-16T04:46:03.220Z,2.65
2023-03-16T04:48:30.629Z,1.98
2023-03-16T04:50:57.328Z,4.05
2023-03-16T04:53:23.970Z,2.60
2023-03-16T04:55:51.298Z,2.00
2023-03-16T04:58:17.921Z,2.30
2023-03-16T05:00:45.579Z,2.08
2023-03-16T05:03:12.274Z,3.25
2023-03-16T05:05:39.403Z,2.42
2023-03-16T05:08:10.858Z,2.17
2023-03-16T05:10:37.781Z,3.17
2023-03-16T05:13:05.257Z,2.50
2023-03-16T05:15:32.415Z,2.22
2023-03-16T05:17:59.181Z,2.00
2023-03-16T05:20:26.282Z,2.60
2023-03-16T05:22:52.988Z,2.80
2023-03-16T05:25:20.605Z,2.38
2023-03-16T05:27:50.557Z,2.33
2023-03-16T05:30:18.579Z,3.15
2023-03-16T05:32:45.911Z,2.55
2023-03-16T05:35:13.795Z,1.98
2023-03-16T05:37:41.600Z,1.95
2023-03-16T05:40:17.044Z,1.70
2023-03-16T05:42:45.910Z,2.03
2023-03-16T05:45:13.673Z,2.65
2023-03-16T05:47:40.611Z,2.88
2023-03-16T05:50:10.109Z,2.17
2023-03-16T05:52:40.562Z,2.60
2023-03-16T05:55:09.429Z,1.77
2023-03-16T05:57:36.052Z,2.92
2023-03-16T06:00:14.249Z,2.67
2023-03-16T06:02:47.037Z,3.40
2023-03-16T06:05:13.940Z,1.50
2023-03-16T06:07:41.618Z,1.98
2023-03-16T06:10:09.444Z,2.70
2023-03-16T06:12:36.050Z,2.95
2023-03-16T06:15:03.235Z,1.45
2023-03-16T06:17:29.824Z,2.85
2023-03-16T06:19:58.535Z,2.80
2023-03-16T06:22:25.799Z,1.65
2023-03-16T06:24:52.447Z,1.80
2023-03-16T06:27:20.456Z,1.73
2023-03-16T06:29:48.052Z,2.15
2023-03-16T06:32:15.130Z,1.85
2023-03-16T06:34:41.818Z,2.13
2023-03-16T06:37:08.813Z,2.88
2023-03-16T06:39:35.573Z,2.47
2023-03-16T06:42:04.533Z,2.03
2023-03-16T06:44:31.534Z,2.33
2023-03-16T06:46:58.676Z,1.80
2023-03-16T06:49:25.289Z,1.50
2023-03-16T06:51:51.903Z,2.38
2023-03-16T06:54:18.484Z,1.90
2023-03-16T06:56:46.368Z,1.98
2023-03-16T06:59:13.196Z,2.55
2023-03-16T07:01:39.921Z,1.95
2023-03-16T07:04:06.592Z,2.92
2023-03-16T07:06:33.382Z,2.33
2023-03-16T07:09:01.483Z,2.63
2023-03-16T07:11:28.134Z,1.58
2023-03-16T07:13:54.758Z,1.88
2023-03-16T07:16:22.143Z,1.15
2023-03-16T07:18:48.803Z,1.05
2023-03-16T07:21:15.777Z,2.17
2023-03-16T07:23:42.482Z,1.90
2023-03-16T07:26:09.187Z,1.63
2023-03-16T07:28:35.792Z,2.10
2023-03-16T07:31:04.242Z,1.80
2023-03-16T07:33:35.063Z,2.67
2023-03-16T07:36:06.111Z,1.70
2023-03-16T07:38:33.850Z,2.40
2023-03-16T07:41:01.139Z,1.95
2023-03-16T07:43:29.281Z,1.98
2023-03-16T07:45:56.175Z,1.77
2023-03-16T07:48:23.100Z,2.15
2023-03-16T07:50:50.643Z,1.75
2023-03-16T07:53:17.830Z,1.58
2023-03-16T07:55:44.929Z,1.45
2023-03-16T07:58:12.543Z,1.35
2023-03-16T08:00:40.046Z,2.10
2023-03-16T08:03:06.801Z,2.33
2023-03-16T08:05:33.686Z,2.35
2023-03-16T08:08:01.756Z,1.30
2023-03-16T08:10:29.384Z,1.70
2023-03-16T08:12:56.345Z,1.70
2023-03-16T08:15:23.855Z,2.17
2023-03-16T08:17:50.612Z,2.10
2023-03-16T08:20:19.048Z,1.90
2023-03-16T08:22:46.700Z,1.83
2023-03-16T08:25:14.742Z,1.80
2023-03-16T08:27:43.045Z,2.13
2023-03-16T08:30:12.626Z,2.35
2023-03-16T08:32:40.051Z,2.47
2023-03-16T08:35:16.742Z,1.63
2023-03-16T08:37:43.813Z,2.45
2023-03-16T08:40:15.504Z,2.45
2023-03-16T08:42:43.140Z,4.50
2023-03-16T08:45:13.561Z,2.50
2023-03-16T08:47:40.773Z,3.00
2023-03-16T08:50:08.793Z,1.85
2023-03-16T08:52:36.619Z,2.60
2023-03-16T08:55:05.835Z,2.33
2023-03-16T08:57:33.477Z,1.83
2023-03-16T09:00:00.351Z,2.88
2023-03-16T09:02:27.031Z,2.45
2023-03-16T09:04:53.715Z,3.10
2023-03-16T09:07:20.567Z,2.40
2023-03-16T09:09:47.209Z,2.92
2023-03-16T09:12:13.808Z,2.83
2023-03-16T09:14:40.591Z,2.55
2023-03-16T09:17:11.804Z,2.42
2023-03-16T09:19:57.685Z,2.30
2023-03-16T09:22:25.812Z,2.20
2023-03-16T09:24:52.613Z,6.28
2023-03-16T09:27:20.677Z,3.70
2023-03-16T09:29:47.485Z,4.20
2023-03-16T09:32:14.321Z,2.53
2023-03-16T09:34:41.726Z,2.03
2023-03-16T09:37:08.327Z,2.75
2023-03-16T09:39:34.930Z,3.42
2023-03-16T09:42:14.013Z,2.80
2023-03-16T09:45:10.229Z,2.50
2023-03-16T09:47:38.580Z,2.20
2023-03-16T09:50:13.846Z,2.03
2023-03-16T09:53:06.367Z,1.95
2023-03-16T09:55:36.713Z,2.15
2023-03-16T09:58:22.555Z,1.23
2023-03-16T10:01:16.937Z,2.17
2023-03-16T10:04:04.842Z,1.73
2023-03-16T10:06:33.142Z,1.75
2023-03-16T10:09:26.256Z,1.92
2023-03-16T10:11:58.818Z,2.00
2023-03-16T10:14:40.440Z,1.50
2023-03-16T10:17:19.172Z,2.42
2023-03-16T10:22:31.165Z,1.73
2023-03-16T10:25:09.348Z,1.90
2023-03-16T10:27:38.411Z,2.22
2023-03-16T10:30:14.919Z,1.65
2023-03-16T10:32:41.537Z,1.80
2023-03-16T10:35:27.816Z,1.95
2023-03-16T10:37:54.851Z,1.95
2023-03-16T10:40:22.285Z,1.83
2023-03-16T10:42:49.378Z,2.08
2023-03-16T10:45:32.282Z,2.40
2023-03-16T10:48:16.423Z,1.30
2023-03-16T10:50:44.663Z,1.33
2023-03-16T10:53:25.400Z,1.60
2023-03-16T10:56:02.148Z,1.63
2023-03-16T10:58:40.317Z,1.92
2023-03-16T11:01:34.801Z,1.75
2023-03-16T11:04:02.299Z,2.10
2023-03-16T11:06:31.884Z,2.13
2023-03-16T11:09:28.058Z,1.60
2023-03-16T11:11:54.818Z,1.90
2023-03-16T11:14:26.108Z,1.98
2023-03-16T11:17:02.261Z,2.50
2023-03-16T11:19:41.634Z,1.83
2023-03-16T11:22:20.260Z,1.73
2023-03-16T11:27:24.027Z,2.13
2023-03-16T11:29:58.734Z,1.55
2023-03-16T11:32:36.307Z,1.35
2023-03-16T11:35:16.793Z,1.73
2023-03-16T11:37:48.859Z,1.63
2023-03-16T11:40:41.437Z,1.83
2023-03-16T11:43:43.694Z,2.40
2023-03-16T11:46:48.173Z,2.72
2023-03-16T11:49:26.798Z,2.08
2023-03-16T11:54:50.357Z,1.85
2023-03-16T11:57:33.026Z,1.77
2023-03-16T12:00:06.693Z,2.05
2023-03-16T12:02:38.181Z,2.08
2023-03-16T12:05:07.869Z,1.83
2023-03-16T12:08:05.341Z,2.00
2023-03-16T12:13:37.560Z,2.30
2023-03-16T12:16:58.318Z,1.42
2023-03-16T12:19:35.196Z,1.75
2023-03-16T12:22:08.814Z,2.75
2023-03-16T12:24:42.722Z,2.08
2023-03-16T12:27:15.972Z,1.85
2023-03-16T12:29:51.981Z,1.98
2023-03-16T12:32:28.465Z,1.45
2023-03-16T12:35:17.749Z,1.67
2023-03-16T12:38:01.362Z,1.25
2023-03-16T12:40:39.658Z,1.77
2023-03-16T12:43:40.765Z,1.92
2023-03-16T12:46:26.781Z,1.38
2023-03-16T12:49:00.346Z,1.75
2023-03-16T12:51:37.577Z,1.17
2023-03-16T12:54:05.661Z,2.28
2023-03-16T12:56:43.728Z,1.67
2023-03-16T12:59:21.023Z,1.67
2023-03-16T13:01:56.828Z,1.92
2023-03-16T13:04:34.008Z,2.10
2023-03-16T13:07:12.026Z,2.45
2023-03-16T13:09:48.383Z,1.88
2023-03-16T13:12:44.344Z,2.03
2023-03-16T13:15:25.705Z,1.63
2023-03-16T13:18:06.605Z,1.20
2023-03-16T13:20:54.700Z,1.40
2023-03-16T13:23:42.294Z,1.88
2023-03-16T13:26:22.944Z,1.48
2023-03-16T13:28:55.228Z,1.63
2023-03-16T13:31:27.710Z,1.50
2023-03-16T13:33:56.955Z,1.55
2023-03-16T13:36:25.541Z,2.67
2023-03-16T13:39:14.603Z,1.38
2023-03-16T14:30:54.562Z,2.00
2023-03-16T14:33:42.882Z,2.67
2023-03-16T14:36:14.456Z,2.47
2023-03-16T14:38:43.805Z,2.63
2023-03-16T14:41:19.642Z,2.15
2023-03-16T14:43:57.552Z,1.92
2023-03-16T14:46:33.223Z,2.55
2023-03-16T14:49:08.926Z,1.88
2023-03-16T14:51:38.620Z,3.78
2023-03-16T14:54:19.745Z,2.13
2023-03-16T14:56:55.443Z,1.63
2023-03-16T14:59:22.280Z,2.20
2023-03-16T15:01:50.536Z,1.33
2023-03-16T15:04:23.836Z,1.65
2023-03-16T15:06:50.759Z,1.88
2023-03-16T15:09:35.551Z,2.10
2023-03-16T15:14:47.403Z,1.60
2023-03-16T15:17:15.293Z,1.38
2023-03-16T15:19:41.937Z,2.42
2023-03-16T15:22:12.512Z,2.33
2023-03-16T15:24:39.947Z,2.67
2023-03-16T15:27:25.579Z,2.05
2023-03-16T15:29:52.319Z,1.60
2023-03-16T15:32:18.941Z,2.40
2023-03-16T15:34:48.110Z,1.75
2023-03-16T15:37:17.250Z,2.10
2023-03-16T15:39:46.852Z,2.13
2023-03-16T15:42:16.658Z,1.90
2023-03-16T15:44:44.009Z,2.20
2023-03-16T15:47:11.013Z,2.42
2023-03-16T15:49:47.121Z,2.03
2023-03-16T15:52:26.738Z,2.80
2023-03-16T15:54:53.452Z,3.05
2023-03-16T15:57:20.920Z,2.13
2023-03-16T15:59:47.631Z,3.08
2023-03-16T16:02:31.974Z,2.47
2023-03-16T16:04:59.261Z,2.22
2023-03-16T16:07:26.947Z,3.35
2023-03-16T16:09:53.515Z,1.92
2023-03-16T16:12:26.790Z,2.13
2023-03-16T16:14:56.327Z,2.53
2023-03-16T16:17:36.572Z,1.92
2023-03-16T16:20:34.301Z,2.90
2023-03-16T16:23:03.035Z,3.00
2023-03-16T16:25:37.058Z,1.77
2023-03-16T16:28:12.850Z,2.45
2023-03-16T16:30:40.053Z,2.97
2023-03-16T16:33:25.493Z,1.80
2023-03-16T16:35:53.984Z,2.05
2023-03-16T16:38:21.160Z,3.97
2023-03-16T16:40:48.447Z,2.33
2023-03-16T16:43:27.295Z,3.35
2023-03-16T16:45:54.622Z,2.25
2023-03-16T16:48:32.656Z,1.90
2023-03-16T16:51:01.430Z,3.72
2023-03-16T16:53:28.335Z,2.03
2023-03-16T16:55:56.124Z,2.40
2023-03-16T16:58:24.851Z,2.13
2023-03-16T17:00:58.176Z,2.65
2023-03-16T17:03:29.877Z,2.17
2023-03-16T17:05:58.406Z,2.38
2023-03-16T17:08:25.987Z,2.85
2023-03-16T17:10:54.054Z,3.15
2023-03-16T17:13:28.346Z,2.17
2023-03-16T17:15:55.457Z,3.60
2023-03-16T17:18:22.444Z,2.70
2023-03-16T17:20:50.711Z,3.55
2023-03-16T17:23:29.757Z,3.13
2023-03-16T17:25:58.414Z,3.45
2023-03-16T17:28:28.375Z,2.97
2023-03-16T17:30:55.202Z,3.67
2023-03-16T17:33:22.596Z,2.72
2023-03-16T17:35:49.304Z,3.45
2023-03-16T17:38:21.293Z,2.38
2023-03-16T17:40:49.186Z,3.83
2023-03-16T17:43:17.884Z,3.10
2023-03-16T17:45:47.127Z,3.17
2023-03-16T17:48:20.314Z,4.15
2023-03-16T17:50:48.382Z,2.83
2023-03-16T17:53:16.723Z,3.83
2023-03-16T17:55:44.196Z,4.88
2023-03-16T17:58:29.644Z,5.68
2023-03-16T18:00:57.501Z,4.47
2023-03-16T18:03:30.528Z,3.95
2023-03-16T18:05:57.344Z,4.50
2023-03-16T18:08:26.202Z,4.70
2023-03-16T18:10:56.205Z,4.43
2023-03-16T18:13:32.638Z,5.80
2023-03-16T18:16:00.053Z,5.07
2023-03-16T18:18:30.092Z,4.43
2023-03-16T18:20:59.705Z,4.93
2023-03-16T18:23:31.844Z,4.53
2023-03-16T18:26:06.400Z,4.38
2023-03-16T18:28:34.708Z,4.82
2023-03-16T18:31:03.834Z,5.75
2023-03-16T18:33:33.640Z,3.60
2023-03-16T18:36:15.707Z,5.57
2023-03-16T18:38:48.446Z,5.75
2023-03-16T18:41:19.606Z,4.82
2023-03-16T18:43:47.293Z,5.35
2023-03-16T18:46:34.896Z,5.53
2023-03-16T18:49:18.803Z,4.50
2023-03-16T18:51:49.708Z,4.47
2023-03-16T18:54:22.379Z,4.57
2023-03-16T18:56:49.726Z,4.15
2023-03-16T18:59:16.866Z,5.28
2023-03-16T19:01:45.585Z,6.18
2023-03-16T19:04:30.828Z,4.45
2023-03-16T19:06:57.747Z,5.72
2023-03-16T19:09:28.093Z,5.07
2023-03-16T19:11:55.352Z,4.22
2023-03-16T19:14:26.991Z,4.93
2023-03-16T19:16:54.793Z,4.38
2023-03-16T19:19:23.375Z,5.60
2023-03-16T19:21:53.782Z,5.38
2023-03-16T19:24:31.692Z,3.92
2023-03-16T19:26:58.820Z,3.97
2023-03-16T19:29:32.959Z,3.72
2023-03-16T19:32:00.462Z,4.00
2023-03-16T19:34:27.927Z,4.07
2023-03-16T19:36:54.572Z,5.95
2023-03-16T19:39:21.593Z,3.08
2023-03-16T19:41:54.346Z,4.57
2023-03-16T19:44:23.712Z,4.45
2023-03-16T19:46:50.681Z,4.80
2023-03-16T19:49:30.790Z,6.15
2023-03-16T19:52:00.404Z,3.47
2023-03-16T19:54:33.563Z,4.13
2023-03-16T19:57:05.867Z,5.20
2023-03-16T20:02:02.732Z,6.70
2023-03-16T20:04:30.459Z,5.38
2023-03-16T20:06:57.069Z,6.47
2023-03-16T20:09:23.810Z,5.10
2023-03-16T20:11:50.767Z,5.25
2023-03-16T20:14:38.055Z,5.88
2023-03-16T20:17:11.037Z,6.78
2023-03-16T20:19:37.629Z,5.80
2023-03-16T20:22:12.298Z,4.20
2023-03-16T20:24:38.895Z,4.50
2023-03-16T20:27:05.584Z,5.22
2023-03-16T20:29:33.519Z,5.25
2023-03-16T20:32:01.442Z,6.60
2023-03-16T20:34:31.377Z,3.80
2023-03-16T20:36:58.399Z,3.33
2023-03-16T20:39:25.203Z,5.57
2023-03-16T20:41:52.577Z,3.35
2023-03-16T20:44:21.202Z,5.30
2023-03-16T20:46:48.104Z,3.38
2023-03-16T20:49:25.302Z,4.32
2023-03-16T20:51:52.344Z,4.13
2023-03-16T20:54:19.151Z,4.82
2023-03-16T20:56:45.808Z,5.30
2023-03-16T20:59:23.575Z,4.88
2023-03-16T21:01:51.892Z,4.82
2023-03-16T21:04:27.777Z,4.45
2023-03-16T21:06:56.805Z,5.20
2023-03-16T21:09:23.557Z,4.80
2023-03-16T21:11:50.413Z,4.43
2023-03-16T21:14:21.539Z,4.40
2023-03-16T21:16:48.444Z,3.65
2023-03-16T21:19:18.256Z,4.35
2023-03-16T21:21:45.385Z,4.97
2023-03-16T21:24:11.980Z,4.03
2023-03-16T21:26:39.892Z,5.20
2023-03-16T21:29:13.557Z,3.67
2023-03-16T21:31:40.787Z,3.80
2023-03-16T21:34:30.678Z,5.00
2023-03-16T21:36:57.302Z,4.32
2023-03-16T21:39:25.344Z,4.55
2023-03-16T21:41:52.279Z,4.47
2023-03-16T21:44:19.644Z,4.13
2023-03-16T21:46:47.432Z,2.65
2023-03-16T21:49:14.870Z,4.30
2023-03-16T21:51:43.194Z,5.40
2023-03-16T21:54:14.917Z,3.67
2023-03-16T21:56:42.366Z,3.85
2023-03-16T21:59:09.266Z,4.45
2023-03-16T22:01:42.855Z,5.13
2023-03-16T22:04:17.859Z,5.28
2023-03-16T22:06:46.021Z,4.40
2023-03-16T22:09:18.568Z,3.60
2023-03-16T22:11:45.423Z,5.40
2023-03-16T22:14:12.203Z,2.72
2023-03-16T22:16:39.931Z,2.85
2023-03-16T22:19:12.067Z,4.45
2023-03-16T22:21:41.201Z,4.68
2023-03-16T22:24:15.866Z,3.80
2023-03-16T22:26:42.645Z,4.68
2023-03-16T22:29:28.223Z,4.22
2023-03-16T22:32:03.073Z,4.53
2023-03-16T22:34:42.150Z,4.30
2023-03-16T22:37:10.632Z,4.28
2023-03-16T22:39:38.831Z,3.80
2023-03-16T22:42:35.919Z,3.50
2023-03-16T22:45:05.623Z,2.92
2023-03-16T22:47:36.976Z,3.42
2023-03-16T22:50:03.828Z,3.85
2023-03-16T22:52:33.898Z,3.90
2023-03-16T22:55:02.692Z,3.53
2023-03-16T22:57:30.376Z,3.65
2023-03-16T22:59:57.973Z,4.78
2023-03-16T23:02:26.544Z,4.20
2023-03-16T23:04:53.272Z,4.03
2023-03-16T23:07:20.194Z,3.72
2023-03-16T23:09:48.533Z,3.85
2023-03-16T23:12:19.792Z,4.65
2023-03-16T23:14:46.384Z,2.92
2023-03-16T23:17:18.670Z,3.88
2023-03-16T23:19:46.312Z,3.97
2023-03-16T23:22:13.399Z,2.70
2023-03-16T23:24:40.990Z,3.83
2023-03-16T23:27:17.463Z,4.38
2023-03-16T23:29:44.477Z,3.67
2023-03-16T23:32:11.685Z,3.85
2023-03-16T23:34:38.302Z,3.45
2023-03-16T23:37:05.223Z,4.07
2023-03-16T23:39:31.834Z,3.05
2023-03-16T23:41:58.434Z,4.55
2023-03-16T23:44:28.780Z,2.72
2023-03-16T23:46:55.584Z,4.03
2023-03-16T23:49:25.553Z,3.00
2023-03-16T23:51:53.383Z,3.67
2023-03-16T23:54:25.705Z,3.40
2023-03-16T23:56:52.581Z,3.47
2023-03-16T23:59:20.395Z,3.22
